createdAt,value
2018-03-03T00:00:22.018Z,30.70
2018-03-03T00:02:49.800Z,30.30
2018-03-03T00:05:18.316Z,30.10
2018-03-03T00:07:46.097Z,30.00
2018-03-03T00:10:13.885Z,30.00
2018-03-03T00:12:41.622Z,29.80
2018-03-03T00:15:09.402Z,31.40
2018-03-03T00:17:37.189Z,30.00
2018-03-03T00:20:04.927Z,30.90
2018-03-03T00:22:41.476Z,30.80
2018-03-03T00:25:09.227Z,30.10
2018-03-03T00:27:37.019Z,30.80
2018-03-03T00:30:04.769Z,30.00
2018-03-03T00:32:32.557Z,31.20
2018-03-03T00:35:00.403Z,31.80
2018-03-03T00:37:28.152Z,31.70
2018-03-03T00:39:55.927Z,31.60
2018-03-03T00:42:23.693Z,31.40
2018-03-03T00:44:51.428Z,31.00
2018-03-03T00:47:19.147Z,30.90
2018-03-03T00:49:46.898Z,31.50
2018-03-03T00:52:14.632Z,31.80
2018-03-03T00:54:42.422Z,31.50
2018-03-03T00:57:10.180Z,31.10
2018-03-03T00:59:37.911Z,31.20
2018-03-03T01:02:05.720Z,31.70
2018-03-03T01:04:33.530Z,31.90
2018-03-03T01:07:02.069Z,31.50
2018-03-03T01:09:29.798Z,31.40
2018-03-03T01:11:57.605Z,30.90
2018-03-03T01:14:25.332Z,31.00
2018-03-03T01:16:53.103Z,31.90
2018-03-03T01:19:20.818Z,32.40
2018-03-03T01:21:48.620Z,31.60
2018-03-03T01:24:16.359Z,31.70
2018-03-03T01:26:44.088Z,31.60
2018-03-03T01:29:11.903Z,32.40
2018-03-03T01:31:39.702Z,31.80
2018-03-03T01:34:07.442Z,32.20
2018-03-03T01:36:35.233Z,31.70
2018-03-03T01:39:03.032Z,32.20
2018-03-03T01:41:30.816Z,32.80
2018-03-03T01:43:58.606Z,31.70
2018-03-03T01:46:26.398Z,31.90
2018-03-03T01:48:54.133Z,32.30
2018-03-03T01:51:33.634Z,31.90
2018-03-03T01:54:01.383Z,33.50
2018-03-03T01:56:29.159Z,32.80
2018-03-03T01:58:56.900Z,32.50
2018-03-03T02:01:24.637Z,31.70
2018-03-03T02:03:52.411Z,32.30
2018-03-03T02:06:20.208Z,32.30
2018-03-03T02:08:47.982Z,32.40
2018-03-03T02:11:15.754Z,32.50
2018-03-03T02:13:43.549Z,32.70
2018-03-03T02:16:11.283Z,32.20
2018-03-03T02:18:39.008Z,34.50
2018-03-03T02:21:06.757Z,33.80
2018-03-03T02:23:34.525Z,32.40
2018-03-03T02:26:02.262Z,32.20
2018-03-03T02:28:29.996Z,33.00
2018-03-03T02:30:57.776Z,33.20
2018-03-03T02:33:25.571Z,32.70
2018-03-03T02:35:53.364Z,32.90
2018-03-03T02:38:21.145Z,33.10
2018-03-03T02:40:48.919Z,32.90
2018-03-03T02:43:16.672Z,33.40
2018-03-03T02:45:44.466Z,34.50
2018-03-03T02:48:12.187Z,33.90
2018-03-03T02:50:39.920Z,32.60
2018-03-03T02:53:07.700Z,32.50
2018-03-03T02:55:35.444Z,33.00
2018-03-03T02:58:03.188Z,33.50
2018-03-03T03:00:30.967Z,33.70
2018-03-03T03:02:58.712Z,32.30
2018-03-03T03:05:26.483Z,32.70
2018-03-03T03:07:54.205Z,33.90
2018-03-03T03:10:21.948Z,33.60
2018-03-03T03:12:49.746Z,33.60
2018-03-03T03:15:17.514Z,33.00
2018-03-03T03:17:45.315Z,32.50
2018-03-03T03:20:13.118Z,33.70
2018-03-03T03:22:40.905Z,33.70
2018-03-03T03:25:08.688Z,33.10
2018-03-03T03:27:36.526Z,35.00
2018-03-03T03:30:04.270Z,34.30
2018-03-03T03:32:32.010Z,33.20
2018-03-03T03:34:59.783Z,33.30
2018-03-03T03:37:28.253Z,33.70
2018-03-03T03:39:56.001Z,33.60
2018-03-03T03:42:23.790Z,35.40
2018-03-03T03:44:51.527Z,33.90
2018-03-03T03:47:19.326Z,34.40
2018-03-03T03:49:47.103Z,33.30
2018-03-03T03:52:15.635Z,35.40
2018-03-03T03:54:43.368Z,35.20
2018-03-03T03:57:11.163Z,33.60
2018-03-03T03:59:38.977Z,35.00
2018-03-03T04:02:07.446Z,35.80
2018-03-03T04:04:35.184Z,34.70
2018-03-03T04:07:02.931Z,35.40
2018-03-03T04:09:30.688Z,34.60
2018-03-03T04:11:58.492Z,33.90
2018-03-03T04:14:26.315Z,34.10
2018-03-03T04:16:54.892Z,35.10
2018-03-03T04:19:22.679Z,35.00
2018-03-03T04:21:50.484Z,34.60
2018-03-03T04:24:18.298Z,34.10
2018-03-03T04:26:46.910Z,33.80
2018-03-03T04:29:14.648Z,33.70
2018-03-03T04:31:42.375Z,34.60
2018-03-03T04:34:10.154Z,34.30
2018-03-03T04:36:37.880Z,34.30
2018-03-03T04:39:05.672Z,34.20
2018-03-03T04:41:33.413Z,34.00
2018-03-03T04:44:01.146Z,34.10
2018-03-03T04:46:28.918Z,38.10
2018-03-03T04:48:56.703Z,35.80
2018-03-03T04:51:24.463Z,32.00
2018-03-03T04:53:52.228Z,33.50
2018-03-03T04:56:20.046Z,37.40
2018-03-03T04:58:52.414Z,35.10
2018-03-03T05:01:23.024Z,30.60
2018-03-03T05:03:53.343Z,33.50
2018-03-03T05:19:52.525Z,34.00
2018-03-03T05:22:35.178Z,32.90
2018-03-03T05:38:50.113Z,33.10
2018-03-03T05:41:23.459Z,33.30
2018-03-03T05:57:30.150Z,32.20
2018-03-03T06:00:03.491Z,32.50
2018-03-03T06:02:37.885Z,33.40
2018-03-03T06:05:11.200Z,32.70
2018-03-03T06:21:01.201Z,35.80
2018-03-03T06:23:29.082Z,30.40
2018-03-03T06:25:56.840Z,30.70
2018-03-03T06:28:24.567Z,31.10
2018-03-03T06:30:52.297Z,31.20
2018-03-03T06:33:20.051Z,31.40
2018-03-03T06:35:47.842Z,35.10
2018-03-03T06:38:15.582Z,30.70
2018-03-03T06:40:43.316Z,31.40
2018-03-03T06:43:11.104Z,31.60
2018-03-03T06:45:38.902Z,32.10
2018-03-03T06:48:06.674Z,32.10
2018-03-03T06:50:34.509Z,31.80
2018-03-03T06:53:02.287Z,32.10
2018-03-03T06:55:31.045Z,31.30
2018-03-03T06:57:58.838Z,31.00
2018-03-03T07:00:26.612Z,31.30
2018-03-03T07:02:54.336Z,30.00
2018-03-03T07:05:22.837Z,31.40
2018-03-03T07:07:50.653Z,31.30
2018-03-03T07:10:18.468Z,29.70
2018-03-03T07:12:46.273Z,30.00
2018-03-03T07:15:25.749Z,34.90
2018-03-03T07:17:53.571Z,28.20
2018-03-03T07:20:21.337Z,29.70
2018-03-03T07:22:49.098Z,31.20
2018-03-03T07:25:16.851Z,29.50
2018-03-03T07:27:44.641Z,29.80
2018-03-03T07:30:12.410Z,32.50
2018-03-03T07:32:40.187Z,30.10
2018-03-03T07:35:07.975Z,29.30
2018-03-03T07:37:35.762Z,30.40
2018-03-03T07:40:03.496Z,29.60
2018-03-03T07:42:31.287Z,30.00
2018-03-03T07:44:59.804Z,29.80
2018-03-03T07:47:28.302Z,29.80
2018-03-03T07:49:56.078Z,31.80
2018-03-03T07:52:23.794Z,30.80
2018-03-03T07:54:51.574Z,29.80
2018-03-03T07:57:20.167Z,30.50
2018-03-03T07:59:47.905Z,30.50
2018-03-03T08:02:15.731Z,29.90
2018-03-03T08:04:43.561Z,30.80
2018-03-03T08:07:12.107Z,31.30
2018-03-03T08:09:39.919Z,31.30
2018-03-03T08:12:07.690Z,30.80
2018-03-03T08:14:35.506Z,30.20
2018-03-03T08:17:03.403Z,32.10
2018-03-03T08:19:31.298Z,30.00
2018-03-03T08:21:59.058Z,29.10
2018-03-03T08:24:26.814Z,30.70
2018-03-03T08:26:54.593Z,30.70
2018-03-03T08:29:22.418Z,30.20
2018-03-03T08:31:50.236Z,31.50
2018-03-03T08:34:18.007Z,29.60
2018-03-03T08:36:45.806Z,29.10
2018-03-03T08:39:13.604Z,29.80
2018-03-03T08:41:41.423Z,33.10
2018-03-03T08:44:10.136Z,29.10
2018-03-03T08:46:37.952Z,29.00
2018-03-03T08:49:05.752Z,29.90
2018-03-03T08:51:33.536Z,29.90
2018-03-03T08:54:01.287Z,34.00
2018-03-03T08:56:29.029Z,31.20
2018-03-03T08:58:56.813Z,30.30
2018-03-03T09:01:24.618Z,29.90
2018-03-03T09:03:52.400Z,30.00
2018-03-03T09:06:20.953Z,29.90
2018-03-03T09:08:48.906Z,30.00
2018-03-03T09:11:16.750Z,30.00
2018-03-03T09:13:45.132Z,30.60
2018-03-03T09:16:12.968Z,30.00
2018-03-03T09:18:40.952Z,30.40
2018-03-03T09:21:08.767Z,32.20
2018-03-03T09:23:36.529Z,32.30
2018-03-03T09:26:04.337Z,29.90
2018-03-03T09:28:32.873Z,29.90
2018-03-03T09:31:00.777Z,33.60
2018-03-03T09:33:28.738Z,28.80
2018-03-03T09:35:56.551Z,29.30
2018-03-03T09:38:25.064Z,29.90
2018-03-03T09:40:52.809Z,29.90
2018-03-03T09:43:20.605Z,30.30
2018-03-03T09:45:49.320Z,31.80
2018-03-03T09:48:17.119Z,31.50
2018-03-03T09:50:45.867Z,31.80
2018-03-03T09:53:13.646Z,31.60
2018-03-03T09:55:41.432Z,33.50
2018-03-03T09:58:09.167Z,33.20
2018-03-03T10:00:36.921Z,30.30
2018-03-03T10:03:04.712Z,29.80
2018-03-03T10:05:32.635Z,31.00
2018-03-03T10:08:00.415Z,33.80
2018-03-03T10:10:28.391Z,29.20
2018-03-03T10:12:56.265Z,31.90
2018-03-03T10:15:24.005Z,31.60
2018-03-03T10:17:51.816Z,31.90
2018-03-03T10:20:19.591Z,27.90
2018-03-03T10:22:47.327Z,33.20
2018-03-03T10:25:15.111Z,30.70
2018-03-03T10:27:43.080Z,30.20
2018-03-03T10:30:10.808Z,31.80
2018-03-03T10:32:38.552Z,29.90
2018-03-03T10:35:06.390Z,33.00
2018-03-03T10:37:34.136Z,34.20
2018-03-03T10:40:02.045Z,31.30
2018-03-03T10:42:29.829Z,32.10
2018-03-03T10:44:58.384Z,32.60
2018-03-03T10:47:26.359Z,32.60
2018-03-03T10:49:54.206Z,33.60
2018-03-03T10:52:22.013Z,35.40
2018-03-03T10:54:49.858Z,34.40
2018-03-03T10:57:17.705Z,33.60
2018-03-03T10:59:45.508Z,36.10
2018-03-03T11:02:13.417Z,32.80
2018-03-03T11:04:41.251Z,31.20
2018-03-03T11:07:09.833Z,33.80
2018-03-03T11:09:37.616Z,33.60
2018-03-03T11:12:06.127Z,29.90
2018-03-03T11:14:33.911Z,29.90
2018-03-03T11:17:01.638Z,34.80
2018-03-03T11:19:29.478Z,30.50
2018-03-03T11:21:57.258Z,35.30
2018-03-03T11:24:24.985Z,29.90
2018-03-03T11:26:52.770Z,31.20
2018-03-03T11:29:20.497Z,32.00
2018-03-03T11:31:48.268Z,33.20
2018-03-03T11:34:16.026Z,31.20
2018-03-03T11:36:43.791Z,32.70
2018-03-03T11:39:11.574Z,29.40
2018-03-03T11:41:39.339Z,31.10
2018-03-03T11:44:07.121Z,30.70
2018-03-03T11:46:34.932Z,29.60
2018-03-03T11:49:02.686Z,29.60
2018-03-03T11:51:30.483Z,27.30
2018-03-03T11:53:58.255Z,27.70
2018-03-03T11:56:26.028Z,28.90
2018-03-03T11:58:53.785Z,30.00
2018-03-03T12:01:21.563Z,30.00
2018-03-03T12:03:49.470Z,29.10
2018-03-03T12:06:17.210Z,29.40
2018-03-03T12:08:44.938Z,27.70
2018-03-03T12:11:13.419Z,28.90
2018-03-03T12:13:41.922Z,29.30
2018-03-03T12:16:09.721Z,29.20
2018-03-03T12:18:37.518Z,29.30
2018-03-03T12:21:05.318Z,29.10
2018-03-03T12:23:33.818Z,29.90
2018-03-03T12:26:01.554Z,29.80
2018-03-03T12:28:29.348Z,29.90
2018-03-03T12:30:57.178Z,29.80
2018-03-03T12:33:24.974Z,29.10
2018-03-03T12:35:52.706Z,29.60
2018-03-03T12:38:20.468Z,29.50
2018-03-03T12:40:48.338Z,29.20
2018-03-03T12:43:16.135Z,30.70
2018-03-03T12:45:44.690Z,30.60
2018-03-03T12:48:12.413Z,30.60
2018-03-03T12:50:40.164Z,30.10
2018-03-03T12:53:07.915Z,29.30
2018-03-03T12:55:35.648Z,29.50
2018-03-03T12:58:03.388Z,29.30
2018-03-03T13:00:31.126Z,29.50
2018-03-03T13:02:58.936Z,29.80
2018-03-03T13:05:26.722Z,30.50
2018-03-03T13:07:54.536Z,29.70
2018-03-03T13:10:22.300Z,29.60
2018-03-03T13:12:51.998Z,29.50
2018-03-03T13:15:19.735Z,30.80
2018-03-03T13:17:47.635Z,30.60
2018-03-03T13:20:15.406Z,30.30
2018-03-03T13:22:43.177Z,30.30
2018-03-03T13:25:10.993Z,31.50
2018-03-03T13:27:38.788Z,29.80
2018-03-03T13:30:06.535Z,30.40
2018-03-03T13:32:34.254Z,29.40
2018-03-03T13:35:02.037Z,29.60
2018-03-03T13:37:29.847Z,29.30
2018-03-03T13:39:57.633Z,28.50
2018-03-03T13:42:25.359Z,29.00
2018-03-03T13:44:53.137Z,30.00
2018-03-03T13:47:20.919Z,30.00
2018-03-03T13:49:48.644Z,32.00
2018-03-03T13:52:16.426Z,29.60
2018-03-03T13:54:44.263Z,29.60
2018-03-03T13:57:12.071Z,29.60
2018-03-03T13:59:39.842Z,30.00
2018-03-03T14:02:07.568Z,29.00
2018-03-03T14:04:35.338Z,29.70
2018-03-03T14:07:03.112Z,29.60
2018-03-03T14:09:30.910Z,29.10
2018-03-03T14:11:58.704Z,29.70
2018-03-03T14:14:26.477Z,30.20
2018-03-03T14:16:54.202Z,30.30
2018-03-03T14:19:22.222Z,30.00
2018-03-03T14:21:49.797Z,29.50
2018-03-03T14:24:17.575Z,29.50
2018-03-03T14:26:45.419Z,29.40
2018-03-03T14:29:13.806Z,29.90
2018-03-03T14:31:41.598Z,30.00
2018-03-03T14:34:09.390Z,29.20
2018-03-03T14:36:37.183Z,30.40
2018-03-03T14:39:04.992Z,30.50
2018-03-03T14:41:32.729Z,29.80
2018-03-03T14:44:00.531Z,29.90
2018-03-03T14:46:28.288Z,30.90
2018-03-03T14:48:56.022Z,31.50
2018-03-03T14:51:23.804Z,30.50
2018-03-03T14:53:51.539Z,29.60
2018-03-03T14:56:19.281Z,29.50
2018-03-03T14:58:47.066Z,29.90
2018-03-03T15:01:14.796Z,28.70
2018-03-03T15:03:42.547Z,29.80
2018-03-03T15:06:10.332Z,29.80
2018-03-03T15:08:38.122Z,30.10
2018-03-03T15:11:05.949Z,28.90
2018-03-03T15:13:33.749Z,30.20
2018-03-03T15:16:01.497Z,30.80
2018-03-03T15:18:29.295Z,30.00
2018-03-03T15:20:57.110Z,30.00
2018-03-03T15:23:24.882Z,30.50
2018-03-03T15:25:52.635Z,30.00
2018-03-03T15:28:20.415Z,29.10
2018-03-03T15:30:48.167Z,28.80
2018-03-03T15:33:15.965Z,29.90
2018-03-03T15:35:43.693Z,30.00
2018-03-03T15:38:11.426Z,31.10
2018-03-03T15:40:39.195Z,32.00
2018-03-03T15:43:06.931Z,32.50
2018-03-03T15:45:35.453Z,30.80
2018-03-03T15:48:03.963Z,33.20
2018-03-03T15:50:31.764Z,32.70
2018-03-03T15:52:59.534Z,32.70
2018-03-03T15:55:27.327Z,33.00
2018-03-03T15:57:55.120Z,31.50
2018-03-03T16:00:22.938Z,30.00
2018-03-03T16:02:50.728Z,29.70
2018-03-03T16:05:18.501Z,29.90
2018-03-03T16:07:46.230Z,32.40
2018-03-03T16:10:13.993Z,30.50
2018-03-03T16:12:41.873Z,33.30
2018-03-03T16:15:09.653Z,33.70
2018-03-03T16:17:37.418Z,35.10
2018-03-03T16:20:05.254Z,32.60
2018-03-03T16:22:33.007Z,33.70
2018-03-03T16:25:00.779Z,31.10
2018-03-03T16:27:28.561Z,33.10
2018-03-03T16:29:56.308Z,31.90
2018-03-03T16:32:24.032Z,32.40
2018-03-03T16:34:51.756Z,31.10
2018-03-03T16:37:19.525Z,30.70
2018-03-03T16:39:47.272Z,31.00
2018-03-03T16:42:15.086Z,32.50
2018-03-03T16:44:42.835Z,33.00
2018-03-03T16:47:10.560Z,29.70
2018-03-03T16:49:39.079Z,32.60
2018-03-03T16:52:06.924Z,32.60
2018-03-03T16:54:35.606Z,29.80
2018-03-03T16:57:04.966Z,31.10
2018-03-03T16:59:32.843Z,31.00
2018-03-03T17:02:00.617Z,32.70
2018-03-03T17:04:28.394Z,34.80
2018-03-03T17:06:56.128Z,33.20
2018-03-03T17:09:24.087Z,32.50
2018-03-03T17:11:51.849Z,33.70
2018-03-03T17:14:19.665Z,31.50
2018-03-03T17:16:47.450Z,32.70
2018-03-03T17:19:15.235Z,31.50
2018-03-03T17:21:42.975Z,32.10
2018-03-03T17:24:10.796Z,32.10
2018-03-03T17:26:39.284Z,35.10
2018-03-03T17:29:07.048Z,35.10
2018-03-03T17:31:34.859Z,32.80
2018-03-03T17:34:03.488Z,33.50
2018-03-03T17:36:31.219Z,34.10
2018-03-03T17:38:59.059Z,33.50
2018-03-03T17:41:26.831Z,31.90
2018-03-03T17:43:54.629Z,31.50
2018-03-03T17:46:22.411Z,32.20
2018-03-03T17:48:50.285Z,32.80
2018-03-03T17:51:18.047Z,32.90
2018-03-03T17:53:46.035Z,32.50
2018-03-03T17:56:13.854Z,34.50
2018-03-03T17:58:41.606Z,33.60
2018-03-03T18:01:09.347Z,34.00
2018-03-03T18:03:37.091Z,31.40
2018-03-03T18:06:04.892Z,33.30
2018-03-03T18:08:39.573Z,32.40
2018-03-03T18:11:08.789Z,31.80
2018-03-03T18:13:36.533Z,31.60
2018-03-03T18:16:04.332Z,32.60
2018-03-03T18:18:32.945Z,33.70
2018-03-03T18:21:00.740Z,32.20
2018-03-03T18:23:28.460Z,33.90
2018-03-03T18:25:56.183Z,33.00
2018-03-03T18:28:23.935Z,33.20
2018-03-03T18:30:52.434Z,32.90
2018-03-03T18:33:20.185Z,32.80
2018-03-03T18:35:47.916Z,31.80
2018-03-03T18:38:15.676Z,32.50
2018-03-03T18:40:43.462Z,33.60
2018-03-03T18:43:11.269Z,33.40
2018-03-03T18:45:39.054Z,32.40
2018-03-03T18:48:06.854Z,34.50
2018-03-03T18:50:34.585Z,33.50
2018-03-03T18:53:02.369Z,35.30
2018-03-03T18:55:30.139Z,32.40
2018-03-03T18:57:57.927Z,32.00
2018-03-03T19:00:25.678Z,32.90
2018-03-03T19:02:54.254Z,34.50
2018-03-03T19:05:22.048Z,34.90
2018-03-03T19:07:49.794Z,32.50
2018-03-03T19:10:17.528Z,32.90
2018-03-03T19:12:45.303Z,31.90
2018-03-03T19:15:13.084Z,32.80
2018-03-03T19:17:40.864Z,31.90
2018-03-03T19:20:08.615Z,33.00
2018-03-03T19:22:36.358Z,34.90
2018-03-03T19:25:04.132Z,32.80
2018-03-03T19:27:31.923Z,33.80
2018-03-03T19:29:59.672Z,33.50
2018-03-03T19:32:27.419Z,34.50
2018-03-03T19:34:55.214Z,33.90
2018-03-03T19:37:23.049Z,33.70
2018-03-03T19:39:51.545Z,32.60
2018-03-03T19:42:19.327Z,32.70
2018-03-03T19:44:47.065Z,32.20
2018-03-03T19:47:14.901Z,33.50
2018-03-03T19:49:43.741Z,34.10
2018-03-03T19:52:11.514Z,32.60
2018-03-03T19:54:39.236Z,33.80
2018-03-03T19:57:07.012Z,32.70
2018-03-03T19:59:34.743Z,31.70
2018-03-03T20:02:02.569Z,31.60
2018-03-03T20:04:30.372Z,32.80
2018-03-03T20:06:58.166Z,31.70
2018-03-03T20:09:25.977Z,31.60
2018-03-03T20:11:53.712Z,31.50
2018-03-03T20:14:21.484Z,31.60
2018-03-03T20:16:49.278Z,32.80
2018-03-03T20:19:17.004Z,31.10
2018-03-03T20:21:44.793Z,32.00
2018-03-03T20:24:12.536Z,31.40
2018-03-03T20:26:40.293Z,31.60
2018-03-03T20:29:08.047Z,31.40
2018-03-03T20:31:35.801Z,31.50
2018-03-03T20:34:03.611Z,31.90
2018-03-03T20:36:31.356Z,31.10
2018-03-03T20:38:59.090Z,30.70
2018-03-03T20:41:26.826Z,30.80
2018-03-03T20:43:54.614Z,30.90
2018-03-03T20:46:22.365Z,31.80
2018-03-03T20:48:50.099Z,31.90
2018-03-03T20:51:17.827Z,30.90
2018-03-03T20:53:45.601Z,31.10
2018-03-03T20:56:13.334Z,31.60
2018-03-03T20:58:41.161Z,32.20
2018-03-03T21:01:08.952Z,30.90
2018-03-03T21:03:36.752Z,31.50
2018-03-03T21:06:04.490Z,31.20
2018-03-03T21:08:32.251Z,31.90
2018-03-03T21:11:00.226Z,30.60
2018-03-03T21:13:28.811Z,31.00
2018-03-03T21:15:56.588Z,31.00
2018-03-03T21:18:24.338Z,31.40
2018-03-03T21:20:52.083Z,30.40
2018-03-03T21:23:19.825Z,30.80
2018-03-03T21:25:47.573Z,30.90
2018-03-03T21:28:15.413Z,30.20
2018-03-03T21:30:43.126Z,30.60
2018-03-03T21:33:10.880Z,32.20
2018-03-03T21:35:38.630Z,30.70
2018-03-03T21:38:06.418Z,31.30
2018-03-03T21:40:34.175Z,31.30
2018-03-03T21:43:01.946Z,31.60
2018-03-03T21:45:29.698Z,30.60
2018-03-03T21:47:57.436Z,30.70
2018-03-03T21:50:25.179Z,30.90
2018-03-03T21:52:52.992Z,30.00
2018-03-03T21:55:20.728Z,34.40
2018-03-03T21:57:48.513Z,30.90
2018-03-03T22:00:16.320Z,29.80
2018-03-03T22:02:44.052Z,30.20
2018-03-03T22:05:11.862Z,30.00
2018-03-03T22:07:39.592Z,29.70
2018-03-03T22:10:08.854Z,31.00
2018-03-03T22:12:36.599Z,31.80
2018-03-03T22:15:04.473Z,30.60
2018-03-03T22:17:32.258Z,32.00
2018-03-03T22:19:59.998Z,31.00
2018-03-03T22:22:27.727Z,30.50
2018-03-03T22:24:55.528Z,31.80
2018-03-03T22:27:23.536Z,32.00
2018-03-03T22:29:51.289Z,33.00
2018-03-03T22:32:19.047Z,31.80
2018-03-03T22:34:46.845Z,32.00
2018-03-03T22:37:14.666Z,31.60
2018-03-03T22:39:42.466Z,31.70
2018-03-03T22:42:11.121Z,30.70
2018-03-03T22:44:38.909Z,30.60
2018-03-03T22:47:06.640Z,31.20
2018-03-03T22:49:34.373Z,31.00
2018-03-03T22:52:02.142Z,32.30
2018-03-03T22:54:29.895Z,31.40
2018-03-03T22:56:57.670Z,31.60
2018-03-03T22:59:25.409Z,32.20
2018-03-03T23:01:53.184Z,32.50
2018-03-03T23:04:20.908Z,32.50
2018-03-03T23:06:48.718Z,32.80
2018-03-03T23:09:16.545Z,31.90
2018-03-03T23:11:44.337Z,32.10
2018-03-03T23:14:12.169Z,32.10
2018-03-03T23:16:39.920Z,32.40
2018-03-03T23:19:07.703Z,32.40
2018-03-03T23:21:35.520Z,32.00
2018-03-03T23:24:03.324Z,32.50
2018-03-03T23:26:31.152Z,32.50
2018-03-03T23:28:58.899Z,32.50
2018-03-03T23:31:26.630Z,32.90
2018-03-03T23:33:54.438Z,32.70
2018-03-03T23:36:22.238Z,32.00
2018-03-03T23:38:49.982Z,31.50
2018-03-03T23:41:17.782Z,32.10
2018-03-03T23:43:45.524Z,32.20
2018-03-03T23:46:13.333Z,32.70
2018-03-03T23:48:41.056Z,32.50
2018-03-03T23:51:08.798Z,33.00
2018-03-03T23:53:36.566Z,33.10
2018-03-03T23:56:04.347Z,33.00
2018-03-03T23:58:32.099Z,34.00
